Time;durP1;ratioP1;P1;durP2;ratioP2;P2;SDS_P1;SDS_P2;PMS_P1;PMS_P2;Temp;Humidity;BMP_temperature;BMP_pressure;BME280_temperature;BME280_humidity;BME280_pressure;Samples;Min_cycle;Max_cycle;Signal;HPM_P1;HPM_P2
2022/06/10 00:00:26;;;;;;;14.55;4.93;;;;;;;12.43;86.45;101988.50;4969770;28;20053;-78
2022/06/10 00:02:52;;;;;;;8.75;4.30;;;;;;;12.41;86.36;101985.09;4968466;28;20023;-78
2022/06/10 00:05:22;;;;;;;11.77;4.63;;;;;;;12.42;86.66;101986.81;4972020;28;20026;-78
2022/06/10 00:07:48;;;;;;;13.45;4.90;;;;;;;12.39;86.26;101984.31;4949837;28;20027;-78
2022/06/10 00:10:15;;;;;;;13.93;4.70;;;;;;;12.37;86.47;101986.22;4950787;28;20062;-78
2022/06/10 00:12:40;;;;;;;15.18;5.30;;;;;;;12.37;86.55;101977.44;4949792;28;20106;-78
2022/06/10 00:15:06;;;;;;;12.05;4.65;;;;;;;12.39;86.69;101978.19;4949602;29;20601;-78
2022/06/10 00:17:32;;;;;;;15.60;4.75;;;;;;;12.36;86.49;101989.81;4953569;28;20078;-78
2022/06/10 00:19:57;;;;;;;15.10;4.90;;;;;;;12.32;86.71;101993.59;4969597;28;20465;-78
2022/06/10 00:22:22;;;;;;;13.45;5.07;;;;;;;12.33;86.91;101984.72;4970152;28;20042;-78
2022/06/10 00:24:51;;;;;;;9.90;4.57;;;;;;;12.34;87.00;101980.28;4970357;28;20236;-78
2022/06/10 00:27:16;;;;;;;9.68;4.53;;;;;;;12.30;87.15;101994.63;4985157;28;20559;-77
2022/06/10 00:29:41;;;;;;;17.75;5.30;;;;;;;12.33;86.68;101984.72;4970784;28;20022;-78
2022/06/10 00:32:07;;;;;;;14.60;4.78;;;;;;;12.34;87.26;101981.13;4970988;28;20085;-78
2022/06/10 00:34:35;;;;;;;17.70;5.80;;;;;;;12.38;87.16;101982.63;4970229;28;20033;-78
2022/06/10 00:37:02;;;;;;;12.80;4.80;;;;;;;12.36;87.58;101987.16;4969634;28;20054;-78
2022/06/10 00:39:31;;;;;;;13.80;4.78;;;;;;;12.38;86.74;101985.28;4971007;28;20516;-78
2022/06/10 00:41:58;;;;;;;13.15;4.57;;;;;;;12.37;87.33;101975.66;4970567;28;20034;-78
2022/06/10 00:44:35;;;;;;;11.43;4.40;;;;;;;12.39;86.98;101984.31;4970772;28;20062;-78
2022/06/10 00:47:13;;;;;;;10.80;4.72;;;;;;;12.40;87.36;101986.03;4969395;28;20027;-78
2022/06/10 00:49:40;;;;;;;10.80;4.47;;;;;;;12.41;87.74;101986.91;4968828;28;20110;-78
2022/06/10 00:52:15;;;;;;;11.10;4.97;;;;;;;12.42;87.53;101978.88;4984695;28;20081;-78
2022/06/10 00:54:45;;;;;;;10.75;4.95;;;;;;;12.40;87.08;101974.63;4969201;28;20082;-78
2022/06/10 00:57:31;;;;;;;12.73;4.82;;;;;;;12.45;86.92;101972.56;4969576;28;20051;-78
2022/06/10 01:00:05;;;;;;;12.55;4.30;;;;;;;12.44;87.10;101971.72;4968312;28;20045;-77
2022/06/10 01:02:32;;;;;;;10.45;4.63;;;;;;;12.45;87.12;101968.13;4983315;28;20078;-78
2022/06/10 01:05:00;;;;;;;12.50;4.50;;;;;;;12.51;86.82;101973.00;4959314;28;20449;-78
2022/06/10 01:07:33;;;;;;;11.63;4.63;;;;;;;12.51;87.07;101973.00;4948708;29;20039;-78
2022/06/10 01:10:01;;;;;;;15.73;4.75;;;;;;;12.55;87.10;101974.50;4964409;28;20758;-78
2022/06/10 01:12:44;;;;;;;15.35;4.03;;;;;;;12.58;86.64;101978.75;4964960;28;20031;-78
2022/06/10 01:15:27;;;;;;;10.40;4.15;;;;;;;12.61;87.16;101982.97;4950580;28;20074;-77
2022/06/10 01:17:54;;;;;;;14.95;4.32;;;;;;;12.61;86.45;101980.34;4955265;28;20542;-77
2022/06/10 01:20:38;;;;;;;10.02;4.00;;;;;;;12.66;86.57;101986.16;4969575;28;20437;-78
2022/06/10 01:23:29;;;;;;;11.82;4.03;;;;;;;12.67;86.50;101982.56;4967977;28;20030;-78
2022/06/10 01:26:10;;;;;;;12.13;3.78;;;;;;;12.67;86.15;101977.28;4968352;28;20088;-78
2022/06/10 01:28:57;;;;;;;8.95;3.67;;;;;;;12.69;86.30;101976.25;4968769;28;20019;-78
2022/06/10 01:31:29;;;;;;;10.27;4.10;;;;;;;12.74;86.25;101978.59;4969897;28;20042;-78
2022/06/10 01:34:07;;;;;;;14.50;4.30;;;;;;;12.75;85.69;101975.00;4970854;28;20062;-78
2022/06/10 01:36:41;;;;;;;11.65;4.28;;;;;;;12.77;85.98;101983.66;4969670;28;20027;-78
2022/06/10 01:39:13;;;;;;;14.50;3.90;;;;;;;12.78;85.54;101986.22;4968851;28;20519;-78
2022/06/10 01:41:45;;;;;;;15.95;4.22;;;;;;;12.80;85.71;101983.47;4968854;28;20464;-77
2022/06/10 01:44:25;;;;;;;9.88;3.83;;;;;;;12.82;85.69;101984.25;4968580;28;20027;-78
2022/06/10 01:47:00;;;;;;;10.88;3.50;;;;;;;12.84;85.64;101987.63;4968770;28;20106;-78
2022/06/10 01:49:34;;;;;;;9.88;3.63;;;;;;;12.86;85.63;101983.09;4970357;28;20026;-78
2022/06/10 01:52:14;;;;;;;8.68;3.60;;;;;;;12.90;85.65;101986.38;4973191;28;20046;-78
2022/06/10 01:54:51;;;;;;;12.32;3.25;;;;;;;12.93;85.43;101983.53;4973453;28;20031;-78
2022/06/10 01:57:35;;;;;;;13.32;3.80;;;;;;;12.96;85.46;101978.03;4972437;28;20030;-78
2022/06/10 02:00:20;;;;;;;9.52;3.67;;;;;;;12.96;85.38;101973.59;4972324;28;20050;-78
2022/06/10 02:02:59;;;;;;;11.60;3.15;;;;;;;12.99;84.98;101975.19;4949175;28;20039;-78
2022/06/10 02:05:27;;;;;;;12.95;3.75;;;;;;;12.99;85.41;101977.84;4957969;28;20299;-78
2022/06/10 02:07:58;;;;;;;11.05;3.33;;;;;;;13.03;85.10;101984.63;4971315;28;20019;-78
2022/06/10 02:10:37;;;;;;;7.68;3.42;;;;;;;13.04;85.40;101987.16;4971321;28;20031;-78
2022/06/10 02:13:09;;;;;;;12.35;3.58;;;;;;;13.06;85.12;101990.53;4953388;28;20023;-78
2022/06/10 02:15:40;;;;;;;10.13;3.58;;;;;;;13.06;85.59;101985.25;4952556;28;20023;-78
2022/06/10 02:18:14;;;;;;;11.82;3.33;;;;;;;13.11;85.10;101990.22;4961039;28;20082;-78
2022/06/10 02:20:46;;;;;;;8.82;3.10;;;;;;;13.10;85.00;101983.25;4971234;28;20049;-78
2022/06/10 02:23:16;;;;;;;10.30;3.38;;;;;;;13.12;84.76;101978.72;4971183;28;20022;-78
2022/06/10 02:25:45;;;;;;;13.43;3.75;;;;;;;13.13;85.03;101975.97;4971943;28;20541;-78
2022/06/10 02:28:15;;;;;;;10.65;3.20;;;;;;;13.13;84.92;101986.53;4971749;28;20030;-80
2022/06/10 02:30:46;;;;;;;7.13;2.85;;;;;;;13.15;84.78;101989.91;4971841;28;20031;-78
2022/06/10 02:33:12;;;;;;;11.60;3.63;;;;;;;13.20;84.67;101986.16;4986937;28;20556;-80
2022/06/10 02:36:11;;;;;;;12.38;3.10;;;;;;;13.21;84.54;101988.72;4971017;28;20030;-78
2022/06/10 02:39:08;;;;;;;14.77;3.42;;;;;;;13.24;84.30;101987.69;4969478;28;20785;-78
2022/06/10 02:42:03;;;;;;;8.45;3.00;;;;;;;13.28;83.94;101994.44;4970790;28;20026;-79
2022/06/10 02:44:40;;;;;;;15.13;3.10;;;;;;;13.30;84.25;102003.13;4973098;28;20054;-78
2022/06/10 02:47:27;;;;;;;7.60;2.85;;;;;;;13.31;84.20;102002.16;4971888;28;20022;-78
2022/06/10 02:49:53;;;;;;;12.02;2.67;;;;;;;13.30;84.12;102005.75;4972516;28;20034;-79
2022/06/10 02:52:21;;;;;;;10.65;2.95;;;;;;;13.32;84.28;102006.50;4972965;28;20034;-78
2022/06/10 02:54:47;;;;;;;10.48;2.70;;;;;;;13.32;84.53;102001.22;4971951;28;20035;-79
2022/06/10 02:57:21;;;;;;;9.13;2.80;;;;;;;13.35;84.23;101993.06;4987643;28;20035;-78
2022/06/10 03:02:55;;;;;;;9.23;2.83;;;;;;;13.38;84.62;101998.16;4970833;28;20416;-81
2022/06/10 03:05:30;;;;;;;11.25;2.92;;;;;;;13.39;84.64;101997.22;4959180;28;20039;-78
2022/06/10 03:08:20;;;;;;;9.18;3.00;;;;;;;13.42;84.23;102003.13;4952115;28;20043;-78
2022/06/10 03:11:15;;;;;;;12.40;2.75;;;;;;;13.44;84.07;102008.31;4951251;28;20035;-79
2022/06/10 03:13:40;;;;;;;11.15;3.30;;;;;;;13.44;84.95;102000.38;4932299;29;20427;-79
2022/06/10 03:16:20;;;;;;;12.55;2.92;;;;;;;13.44;84.43;102005.66;4947007;29;20119;-79
2022/06/10 03:18:59;;;;;;;11.65;3.65;;;;;;;13.48;84.64;102018.56;4958485;28;20039;-79
2022/06/10 03:21:55;;;;;;;8.80;2.83;;;;;;;13.51;84.49;102014.88;4969786;28;20034;-79
2022/06/10 03:24:33;;;;;;;11.25;3.08;;;;;;;13.51;84.65;102016.69;4970378;28;20047;-79
2022/06/10 03:27:10;;;;;;;15.05;3.17;;;;;;;13.50;84.33;102023.75;4971166;28;20023;-79
2022/06/10 03:29:42;;;;;;;12.77;2.70;;;;;;;13.51;84.78;102016.69;4968331;28;20221;-79
2022/06/10 03:32:13;;;;;;;10.48;2.97;;;;;;;13.51;84.88;102030.75;4971331;28;20073;-79
2022/06/10 03:34:49;;;;;;;14.90;3.30;;;;;;;13.55;84.78;102032.22;4970144;28;20033;-79
2022/06/10 03:37:17;;;;;;;10.27;2.70;;;;;;;13.55;84.89;102032.22;4969152;28;20019;-79
2022/06/10 03:39:53;;;;;;;9.93;2.80;;;;;;;13.58;85.41;102025.88;4970379;28;20433;-79
2022/06/10 03:42:20;;;;;;;13.50;3.70;;;;;;;13.60;86.16;102016.91;4985468;28;20026;-79
2022/06/10 03:44:49;;;;;;;14.40;3.40;;;;;;;13.60;85.96;102016.03;4968370;28;20035;-79
2022/06/10 03:47:19;;;;;;;10.73;3.20;;;;;;;13.59;86.35;102015.19;4970900;28;20022;-79
2022/06/10 03:50:21;;;;;;;9.52;2.83;;;;;;;13.63;85.72;102016.72;4970004;28;20033;-79
2022/06/10 03:52:47;;;;;;;8.05;2.70;;;;;;;13.60;85.71;102005.47;4947453;28;20068;-79
2022/06/10 03:55:16;;;;;;;11.57;2.80;;;;;;;13.60;86.16;102010.75;4969465;28;20023;-77
2022/06/10 03:57:42;;;;;;;8.85;2.72;;;;;;;13.63;86.58;102026.44;4969349;28;20031;-78
2022/06/10 04:00:08;;;;;;;8.40;2.63;;;;;;;13.61;86.06;102029.19;4970561;28;20034;-78
2022/06/10 04:02:34;;;;;;;11.85;3.03;;;;;;;13.65;85.90;102022.75;4951907;28;20031;-78
2022/06/10 04:04:59;;;;;;;10.43;2.67;;;;;;;13.64;86.11;102028.13;4961231;28;20031;-78
2022/06/10 04:07:25;;;;;;;8.85;2.60;;;;;;;13.66;85.65;102026.25;4984292;28;20575;-78
2022/06/10 04:09:50;;;;;;;11.40;2.92;;;;;;;13.68;85.60;102034.91;4968277;28;20051;-79
2022/06/10 04:12:16;;;;;;;11.10;2.80;;;;;;;13.70;85.75;102031.22;4959268;28;20102;-78
2022/06/10 04:14:42;;;;;;;8.73;2.95;;;;;;;13.70;86.17;102041.78;4949952;28;20023;-78
2022/06/10 04:17:09;;;;;;;14.45;3.58;;;;;;;13.73;86.20;102043.38;4951161;28;20054;-78
2022/06/10 04:19:35;;;;;;;9.88;2.92;;;;;;;13.76;86.32;102032.59;4968694;28;20201;-78
2022/06/10 04:22:00;;;;;;;11.90;3.00;;;;;;;13.79;87.40;102038.50;4970327;28;20026;-79
2022/06/10 04:24:26;;;;;;;8.60;2.63;;;;;;;13.81;87.61;102051.63;4969894;28;20453;-78
2022/06/10 04:26:52;;;;;;;10.07;2.90;;;;;;;13.83;88.05;102054.16;4969971;28;20034;-78
2022/06/10 04:29:17;;;;;;;9.23;2.45;;;;;;;13.85;87.46;102036.41;4971198;28;20042;-78
2022/06/10 04:31:42;;;;;;;7.22;2.72;;;;;;;13.88;87.69;102047.59;4970690;28;20083;-78
2022/06/10 04:34:09;;;;;;;12.20;3.20;;;;;;;13.89;88.06;102038.72;4969131;28;20092;-78
2022/06/10 04:36:37;;;;;;;12.65;2.80;;;;;;;13.92;88.17;102037.66;4970591;28;20026;-78
2022/06/10 04:39:03;;;;;;;7.50;2.40;;;;;;;13.94;87.56;102048.97;4971221;28;20137;-78
2022/06/10 04:41:31;;;;;;;10.95;2.70;;;;;;;13.94;87.53;102041.88;4970100;28;20037;-78
2022/06/10 04:43:57;;;;;;;9.07;2.70;;;;;;;13.95;86.84;102043.59;4971198;28;20027;-78
2022/06/10 04:46:36;;;;;;;13.40;2.90;;;;;;;13.99;87.38;102045.06;4969727;28;20038;-78
2022/06/10 04:49:02;;;;;;;12.18;2.53;;;;;;;14.00;87.23;102045.91;4969522;28;20061;-78
2022/06/10 04:51:27;;;;;;;8.25;2.60;;;;;;;14.02;86.91;102050.16;4969931;28;20070;-78
2022/06/10 04:53:52;;;;;;;8.40;2.60;;;;;;;14.03;86.60;102051.03;4967488;28;20054;-79
2022/06/10 04:56:18;;;;;;;12.15;2.80;;;;;;;14.01;86.88;102045.84;4968729;28;20547;-78
2022/06/10 04:58:43;;;;;;;14.65;2.75;;;;;;;14.06;86.96;102048.16;4969248;28;20592;-78
2022/06/10 05:01:09;;;;;;;14.57;2.92;;;;;;;14.06;86.56;102048.16;4969152;28;20073;-78
2022/06/10 05:03:35;;;;;;;10.13;2.70;;;;;;;14.10;86.64;102039.03;4968789;28;20054;-78
2022/06/10 05:06:00;;;;;;;10.73;2.65;;;;;;;14.14;85.91;102037.88;4966154;28;20027;-78
2022/06/10 05:08:26;;;;;;;10.00;2.78;;;;;;;14.17;86.10;102042.94;4964211;28;20126;-79
2022/06/10 05:10:51;;;;;;;12.23;2.92;;;;;;;14.19;85.62;102046.34;4949900;28;20030;-78
2022/06/10 05:13:17;;;;;;;17.63;3.33;;;;;;;14.24;85.70;102038.91;4950472;28;20024;-78
2022/06/10 05:15:43;;;;;;;11.13;2.90;;;;;;;14.26;85.57;102037.00;4949340;28;20211;-78
2022/06/10 05:18:11;;;;;;;8.80;2.90;;;;;;;14.30;85.84;102037.63;4958725;28;20027;-78
2022/06/10 05:20:40;;;;;;;11.23;2.85;;;;;;;14.34;85.74;102028.50;4967727;28;20027;-78
2022/06/10 05:23:06;;;;;;;11.93;2.83;;;;;;;14.34;85.48;102024.06;4969167;28;20033;-78
2022/06/10 05:25:32;;;;;;;13.60;3.40;;;;;;;14.38;85.51;102025.53;4969871;28;20118;-78
2022/06/10 05:27:57;;;;;;;11.70;2.70;;;;;;;14.43;85.55;102027.06;4974270;28;20102;-78
2022/06/10 05:30:28;;;;;;;10.13;2.95;;;;;;;14.50;85.66;102023.03;4973877;28;20030;-78
2022/06/10 05:32:54;;;;;;;9.30;3.03;;;;;;;14.57;85.38;102018.97;4972366;28;20488;-78
2022/06/10 05:35:20;;;;;;;8.27;2.50;;;;;;;14.65;84.74;102024.56;4989251;28;20023;-79
2022/06/10 05:37:47;;;;;;;10.52;2.75;;;;;;;14.72;84.65;102020.50;4973299;28;20026;-79
2022/06/10 05:40:14;;;;;;;8.95;3.13;;;;;;;14.77;84.69;102025.47;4974323;28;20026;-78
2022/06/10 05:42:40;;;;;;;11.27;2.90;;;;;;;14.84;84.02;102021.44;4972155;28;20414;-79
2022/06/10 05:45:07;;;;;;;9.75;2.67;;;;;;;14.89;83.99;102030.75;4973609;28;20502;-78
2022/06/10 05:47:34;;;;;;;9.85;3.00;;;;;;;14.95;84.05;102029.44;4973663;28;20026;-78
2022/06/10 05:50:05;;;;;;;10.43;2.88;;;;;;;15.00;84.09;102025.50;4989127;28;20029;-79
2022/06/10 05:52:31;;;;;;;9.48;2.70;;;;;;;15.04;83.37;102024.28;4987384;28;20037;-78
2022/06/10 05:55:00;;;;;;;12.55;2.95;;;;;;;15.09;83.50;102026.59;4987903;28;20029;-78
2022/06/10 05:57:26;;;;;;;11.80;2.75;;;;;;;15.16;83.48;102022.53;4970858;28;20377;-78
2022/06/10 05:59:52;;;;;;;8.23;2.53;;;;;;;15.21;83.16;102022.19;4972151;28;20037;-78
2022/06/10 06:02:19;;;;;;;7.20;2.60;;;;;;;15.27;83.15;102024.41;4972664;28;20034;-78
2022/06/10 06:04:45;;;;;;;9.50;2.80;;;;;;;15.34;83.28;102021.19;4962834;28;20035;-78
2022/06/10 06:07:19;;;;;;;9.15;2.30;;;;;;;15.39;82.34;102018.19;4953509;28;20023;-78
2022/06/10 06:09:45;;;;;;;15.60;2.78;;;;;;;15.45;82.48;102023.00;4952610;28;20094;-78
2022/06/10 06:12:10;;;;;;;10.52;2.25;;;;;;;15.52;82.05;102034.84;4967110;28;20058;-78
2022/06/10 06:14:36;;;;;;;11.90;2.58;;;;;;;15.54;81.51;102032.91;4952584;28;20023;-78
2022/06/10 06:17:03;;;;;;;10.23;2.30;;;;;;;15.64;81.47;102035.78;4968212;28;20034;-78
2022/06/10 06:19:33;;;;;;;6.15;2.10;;;;;;;15.71;80.76;102038.78;4971167;28;20022;-78
2022/06/10 06:21:59;;;;;;;7.45;2.10;;;;;;;15.77;80.87;102027.72;4972389;28;20495;-78
2022/06/10 06:24:25;;;;;;;8.27;2.00;;;;;;;15.80;80.06;102038.09;4972242;28;20027;-78
2022/06/10 06:26:51;;;;;;;9.75;2.35;;;;;;;15.82;79.93;102041.47;4970052;28;20023;-78
2022/06/10 06:29:17;;;;;;;7.20;2.00;;;;;;;15.87;79.85;102049.91;4971033;28;20428;-79
2022/06/10 06:31:42;;;;;;;14.52;2.33;;;;;;;15.90;79.90;102052.31;4971894;28;20031;-79
2022/06/10 06:34:08;;;;;;;6.30;1.75;;;;;;;15.92;80.07;102047.75;4972755;28;20041;-78
2022/06/10 06:36:45;;;;;;;6.40;2.10;;;;;;;15.96;79.84;102054.50;4972717;28;20026;-78
2022/06/10 06:39:12;;;;;;;8.45;1.90;;;;;;;15.99;79.60;102054.25;4971975;28;20050;-79
2022/06/10 06:41:37;;;;;;;9.75;2.03;;;;;;;16.02;79.60;102051.41;4970508;28;20019;-79
2022/06/10 06:44:05;;;;;;;8.23;1.90;;;;;;;16.05;79.62;102052.97;4973205;28;20027;-79
2022/06/10 06:46:32;;;;;;;13.10;2.40;;;;;;;16.09;79.45;102055.25;4972051;28;20033;-79
2022/06/10 06:48:58;;;;;;;9.05;2.10;;;;;;;16.09;80.02;102057.06;4973145;28;20469;-78
2022/06/10 06:51:23;;;;;;;4.97;1.52;;;;;;;16.16;79.31;102061.78;4972740;28;20037;-78
2022/06/10 06:53:49;;;;;;;7.10;1.70;;;;;;;16.19;79.10;102066.84;4971836;28;20109;-78
2022/06/10 06:56:14;;;;;;;12.35;2.13;;;;;;;16.21;79.54;102062.25;4971567;28;20034;-78
2022/06/10 06:58:39;;;;;;;7.38;1.90;;;;;;;16.27;78.82;102059.13;4971192;28;20421;-78
2022/06/10 07:01:05;;;;;;;10.30;2.00;;;;;;;16.33;78.90;102057.78;4970596;28;20496;-78
2022/06/10 07:03:30;;;;;;;11.48;2.28;;;;;;;16.37;78.17;102074.31;4969864;28;20434;-78
2022/06/10 07:05:55;;;;;;;9.82;2.10;;;;;;;16.35;77.32;102070.94;4948905;28;20446;-78
2022/06/10 07:08:21;;;;;;;8.10;1.75;;;;;;;16.35;77.81;102060.31;4932458;29;20510;-78
2022/06/10 07:10:47;;;;;;;9.48;1.90;;;;;;;16.38;77.23;102055.59;4932252;29;20538;-78
2022/06/10 07:13:12;;;;;;;10.00;2.30;;;;;;;16.43;77.61;102053.47;4951439;29;20030;-78
2022/06/10 07:15:42;;;;;;;7.97;1.95;;;;;;;16.53;77.35;102058.88;4950883;28;20023;-79
2022/06/10 07:18:07;;;;;;;6.95;1.90;;;;;;;16.66;76.91;102059.63;4960235;28;20033;-79
2022/06/10 07:20:35;;;;;;;8.20;1.88;;;;;;;16.76;76.66;102054.41;4970652;28;20058;-79
2022/06/10 07:23:01;;;;;;;6.25;1.77;;;;;;;16.91;76.64;102061.16;4970675;28;20026;-78
2022/06/10 07:25:30;;;;;;;5.68;1.60;;;;;;;17.09;75.69;102061.44;4970939;28;20473;-79
2022/06/10 07:27:56;;;;;;;8.70;2.00;;;;;;;17.20;75.56;102070.22;4986065;28;20114;-78
2022/06/10 07:30:26;;;;;;;4.05;1.67;;;;;;;17.19;75.01;102067.69;4970308;28;20035;-78
2022/06/10 07:32:52;;;;;;;7.47;2.00;;;;;;;17.15;74.97;102061.78;4970508;28;20027;-78
2022/06/10 07:35:18;;;;;;;7.43;1.77;;;;;;;17.11;74.67;102063.00;4971042;28;20401;-78
2022/06/10 07:37:45;;;;;;;9.18;2.13;;;;;;;17.11;74.88;102065.66;4968415;28;20030;-78
2022/06/10 07:41:56;;;;;;;8.35;1.67;;;;;;;17.06;74.98;102067.88;4985990;28;20101;-78
2022/06/10 07:43:02;;;;;;;4.95;1.60;;;;;;;17.05;75.26;102066.16;4970423;28;20038;-79
2022/06/10 07:45:31;;;;;;;7.57;2.20;;;;;;;17.07;75.92;102063.38;4969466;28;20126;-79
2022/06/10 07:47:57;;;;;;;4.90;1.92;;;;;;;17.05;75.63;102068.00;4986408;28;20054;-79
2022/06/10 07:50:23;;;;;;;6.55;1.73;;;;;;;17.05;75.49;102065.34;4986041;28;20073;-78
2022/06/10 07:52:49;;;;;;;7.13;1.83;;;;;;;17.04;75.23;102055.66;4971365;28;20287;-79
2022/06/10 07:55:15;;;;;;;4.75;1.70;;;;;;;17.06;74.34;102059.03;4971964;28;20384;-79
2022/06/10 07:57:40;;;;;;;8.18;2.08;;;;;;;17.16;75.08;102057.31;4970314;28;20030;-78
2022/06/10 08:00:06;;;;;;;5.45;1.67;;;;;;;17.27;74.62;102054.63;4971322;28;20030;-80
2022/06/10 08:02:32;;;;;;;7.05;1.67;;;;;;;17.38;74.40;102059.88;4971065;28;20058;-80
2022/06/10 08:04:57;;;;;;;8.20;1.63;;;;;;;17.47;72.57;102056.44;4960984;28;20055;-78
2022/06/10 08:07:22;;;;;;;6.80;1.60;;;;;;;17.61;73.10;102057.09;4952407;28;20397;-80
2022/06/10 08:09:48;;;;;;;8.68;1.77;;;;;;;17.73;73.36;102058.78;4951589;28;20074;-80
2022/06/10 08:12:13;;;;;;;7.68;1.77;;;;;;;17.90;71.71;102066.16;4966537;28;20035;-80
2022/06/10 08:14:38;;;;;;;6.75;1.40;;;;;;;18.00;71.51;102072.38;4951588;28;20393;-79
2022/06/10 08:17:06;;;;;;;6.07;1.50;;;;;;;18.09;70.42;102066.28;4952240;28;20027;-80
2022/06/10 08:19:32;;;;;;;10.07;2.13;;;;;;;18.19;70.52;102062.81;4930593;29;20020;-80
2022/06/10 08:24:41;;;;;;;9.98;2.33;;;;;;;18.28;66.99;102072.66;4932416;29;20057;-81
2022/06/10 08:27:07;;;;;;;10.35;2.50;;;;;;;18.28;66.99;102072.66;4946211;29;20102;-80
2022/06/10 08:29:32;;;;;;;9.82;2.35;;;;;;;18.26;67.48;102070.13;4931151;29;20051;-80
2022/06/10 08:31:57;;;;;;;8.45;2.50;;;;;;;18.25;67.39;102075.59;4931268;29;20115;-80
2022/06/10 08:34:23;;;;;;;9.43;2.33;;;;;;;18.25;68.34;102075.59;4931863;29;20095;-80
2022/06/10 08:36:48;;;;;;;14.70;2.95;;;;;;;18.26;68.42;102079.94;4930934;29;20027;-80
2022/06/10 08:39:14;;;;;;;8.20;2.05;;;;;;;18.30;68.45;102070.72;4931094;29;20035;-80
2022/06/10 08:42:15;;;;;;;10.75;2.72;;;;;;;18.35;69.15;102068.50;4930957;29;20024;-80
2022/06/10 08:44:51;;;;;;;11.07;2.55;;;;;;;18.38;68.14;102069.06;4930936;29;20081;-80
2022/06/10 08:47:54;;;;;;;9.60;2.72;;;;;;;18.44;68.28;102059.72;4945527;29;20016;-80
2022/06/10 08:50:46;;;;;;;9.18;2.50;;;;;;;18.58;69.41;102056.66;4946193;29;20082;-80
2022/06/10 08:53:38;;;;;;;12.50;2.75;;;;;;;18.88;68.48;102044.28;4945443;29;20023;-80
2022/06/10 08:56:43;;;;;;;11.35;2.72;;;;;;;19.15;65.93;102044.44;4946473;29;20047;-80
2022/06/10 08:59:08;;;;;;;10.50;2.30;;;;;;;19.63;66.04;102039.13;4931154;29;20532;-80
2022/06/10 09:02:09;;;;;;;10.50;2.33;;;;;;;20.02;65.09;102045.19;4947487;29;20109;-80
2022/06/10 09:04:53;;;;;;;9.13;2.15;;;;;;;20.37;63.93;102037.44;4932330;29;20044;-81
2022/06/10 09:07:48;;;;;;;9.40;2.35;;;;;;;20.45;62.13;102038.44;4949364;29;20091;-81
2022/06/10 09:10:38;;;;;;;9.20;2.13;;;;;;;20.40;62.16;102034.50;4949773;29;20060;-81
2022/06/10 09:13:52;;;;;;;7.43;1.98;;;;;;;20.48;63.17;102043.50;4952519;29;20027;-81
2022/06/10 09:16:25;;;;;;;6.25;1.88;;;;;;;20.85;61.89;102037.22;4940710;29;20122;-81
2022/06/10 09:19:04;;;;;;;10.57;2.17;;;;;;;20.88;62.25;102036.91;4966099;28;20031;-78
2022/06/10 09:21:35;;;;;;;8.90;2.33;;;;;;;20.83;60.28;102036.53;4987557;28;20030;-81
2022/06/10 09:24:07;;;;;;;11.02;2.25;;;;;;;20.79;60.98;102056.53;4973620;28;20030;-78
2022/06/10 09:26:40;;;;;;;;;;;;;;;20.95;63.60;102046.84;4972169;28;20030;-79
2022/06/10 09:29:06;;;;;;;9.35;2.45;;;;;;;21.06;60.14;102051.13;4973074;28;19972;-80
2022/06/10 09:31:40;;;;;;;9.43;2.53;;;;;;;20.93;58.96;102053.34;4972672;28;20058;-81
2022/06/10 09:34:43;;;;;;;10.80;2.35;;;;;;;20.85;62.06;102058.63;4973093;28;20523;-78
2022/06/10 09:37:47;;;;;;;10.05;2.55;;;;;;;20.82;61.29;102057.09;4973782;28;20038;-81
2022/06/10 09:43:20;;;;;;;7.38;2.15;;;;;;;20.85;62.61;102047.91;4974191;28;20448;-78
2022/06/10 09:45:51;;;;;;;13.52;2.70;;;;;;;20.76;61.71;102049.63;4973551;28;20136;-79
2022/06/10 09:48:26;;;;;;;7.93;2.42;;;;;;;20.71;61.38;102056.44;4972825;28;20062;-81
2022/06/10 09:51:18;;;;;;;10.65;2.45;;;;;;;20.86;63.54;102057.63;4971337;28;20027;-79
2022/06/10 09:53:59;;;;;;;11.23;2.88;;;;;;;20.87;62.45;102054.81;4956656;28;20046;-81
2022/06/10 09:56:50;;;;;;;11.55;2.72;;;;;;;20.91;62.11;102050.81;4973325;28;20023;-81
2022/06/10 09:59:30;;;;;;;10.55;2.80;;;;;;;21.01;61.96;102048.06;4973790;28;20062;-81
2022/06/10 10:02:14;;;;;;;11.82;2.85;;;;;;;21.18;62.56;102041.88;4973724;28;20030;-79
2022/06/10 10:05:14;;;;;;;8.73;2.72;;;;;;;21.28;62.86;102052.56;4964512;28;20027;-79
2022/06/10 10:07:58;;;;;;;12.45;2.50;;;;;;;21.41;62.35;102055.66;4953524;28;20024;-80
2022/06/10 10:10:51;;;;;;;9.48;2.70;;;;;;;21.34;61.21;102059.13;4954023;28;20043;-80
2022/06/10 10:13:35;;;;;;;;;;;;;;;21.29;62.72;102064.09;4954184;28;20493;-79
2022/06/10 10:16:18;;;;;;;11.80;3.00;;;;;;;21.17;61.47;102056.25;4968140;28;19910;-79
2022/06/10 10:19:05;;;;;;;9.80;3.13;;;;;;;20.99;61.52;102054.56;4964722;28;20026;-80
2022/06/10 10:21:55;;;;;;;9.77;2.88;;;;;;;20.89;63.25;102044.78;4972098;28;20030;-79
2022/06/10 10:24:24;;;;;;;10.30;2.47;;;;;;;21.03;62.67;102054.13;4972364;28;20022;-79
2022/06/10 10:26:51;;;;;;;12.05;3.20;;;;;;;21.07;61.63;102039.44;4969804;28;20026;-80
2022/06/10 10:29:26;;;;;;;9.95;2.90;;;;;;;21.31;61.29;102043.38;4971119;28;20481;-80
2022/06/10 10:32:10;;;;;;;12.10;2.85;;;;;;;21.56;62.09;102043.41;4971164;28;20035;-79
2022/06/10 10:34:38;;;;;;;9.73;2.97;;;;;;;21.72;59.96;102045.38;4971564;28;20059;-79
2022/06/10 10:37:19;;;;;;;9.30;3.42;;;;;;;21.86;59.75;102042.09;4972205;28;20034;-79
2022/06/10 10:39:52;;;;;;;8.23;2.72;;;;;;;21.99;59.86;102051.56;4970923;28;20551;-79
2022/06/10 10:42:22;;;;;;;12.70;3.25;;;;;;;22.10;58.88;102040.59;4987002;28;20125;-80
2022/06/10 10:44:56;;;;;;;11.00;3.15;;;;;;;22.31;59.47;102035.66;4971291;28;20030;-79
2022/06/10 10:47:25;;;;;;;11.77;2.95;;;;;;;22.59;58.20;102030.06;4971453;28;20086;-79
2022/06/10 10:50:11;;;;;;;10.00;2.65;;;;;;;22.89;58.01;102031.38;4971183;28;20030;-79
2022/06/10 10:52:44;;;;;;;10.00;3.33;;;;;;;22.90;57.09;102027.69;4970753;28;20058;-80
2022/06/10 10:55:09;;;;;;;12.07;3.03;;;;;;;22.85;56.77;102028.19;4972037;28;20077;-79
2022/06/10 10:57:37;;;;;;;10.70;3.22;;;;;;;22.73;57.33;102034.81;4969657;28;20524;-79
2022/06/10 11:00:03;;;;;;;9.05;3.15;;;;;;;22.63;57.31;102039.47;4971065;28;20054;-79
2022/06/10 11:02:33;;;;;;;14.02;3.05;;;;;;;22.55;57.51;102031.41;4971774;28;20069;-79
2022/06/10 11:05:32;;;;;;;8.63;3.03;;;;;;;22.46;59.50;102028.72;4960980;28;20457;-79
2022/06/10 11:08:16;;;;;;;8.30;3.13;;;;;;;22.44;59.71;102036.06;4966004;28;20126;-79
2022/06/10 11:10:56;;;;;;;9.27;3.45;;;;;;;22.55;59.71;102028.72;4950545;28;20038;-79
2022/06/10 11:13:40;;;;;;;14.18;2.83;;;;;;;22.81;58.58;102026.78;4933090;29;20078;-79
2022/06/10 11:16:21;;;;;;;10.90;3.08;;;;;;;22.89;57.57;102032.22;4933550;29;20032;-79
2022/06/10 11:18:47;;;;;;;13.38;3.33;;;;;;;22.81;57.49;102026.78;4959913;28;20038;-80
2022/06/10 11:21:13;;;;;;;10.85;3.42;;;;;;;22.76;56.01;102023.75;4986855;28;20396;-80
2022/06/10 11:23:49;;;;;;;10.48;3.10;;;;;;;22.54;58.18;102033.25;4969784;28;20070;-79
2022/06/10 11:26:17;;;;;;;8.27;2.72;;;;;;;22.46;57.72;102034.06;4970774;28;20024;-79
2022/06/10 11:28:44;;;;;;;11.10;3.00;;;;;;;22.38;57.72;102036.69;4971070;28;20027;-80
2022/06/10 11:31:27;;;;;;;10.63;3.33;;;;;;;22.41;59.33;102033.69;4970910;28;20161;-79
2022/06/10 11:33:57;;;;;;;11.07;3.20;;;;;;;22.43;58.81;102029.03;4986194;28;20022;-79
2022/06/10 11:36:36;;;;;;;7.75;2.55;;;;;;;22.51;58.95;102030.91;4971644;28;20559;-79
2022/06/10 11:39:27;;;;;;;8.10;2.58;;;;;;;22.60;59.20;102019.19;4971953;28;20126;-79
2022/06/10 11:42:10;;;;;;;9.43;2.42;;;;;;;22.88;57.98;102017.09;4985608;28;20031;-79
2022/06/10 11:44:51;;;;;;;9.02;2.67;;;;;;;23.25;57.59;102018.47;4971343;28;20030;-79
2022/06/10 11:47:30;;;;;;;8.90;2.83;;;;;;;23.34;56.45;102022.84;4972052;28;20029;-80
2022/06/10 11:50:19;;;;;;;7.68;2.50;;;;;;;23.13;56.80;102013.44;4971036;28;20033;-80
2022/06/10 11:53:01;;;;;;;11.05;2.58;;;;;;;23.02;56.78;102003.03;4971306;28;20477;-80
2022/06/10 11:55:33;;;;;;;11.55;2.58;;;;;;;23.14;55.83;102007.03;4986510;28;20055;-79